Time;durP1;ratioP1;P1;durP2;ratioP2;P2;SDS_P1;SDS_P2;PMS_P1;PMS_P2;Temp;Humidity;BMP_temperature;BMP_pressure;BME280_temperature;BME280_humidity;BME280_pressure;Samples;Min_cycle;Max_cycle;Signal;HPM_P1;HPM_P2
2023/10/15 00:02:32;;;;;;;3.00;1.60;;;;;;;7.85;79.52;99337.76;217916;1261;139879;-69
2023/10/15 00:07:36;;;;;;;6.00;3.20;;;;;;;7.78;79.68;99342.91;217123;1259;139457;-67
2023/10/15 00:12:41;;;;;;;5.30;2.10;;;;;;;7.74;80.15;99343.89;218108;1259;139417;-69
2023/10/15 00:17:52;;;;;;;11.30;2.90;;;;;;;7.79;80.81;99340.46;218510;1259;139516;-69
2023/10/15 00:22:56;;;;;;;4.00;2.30;;;;;;;7.87;80.83;99341.73;217993;1258;140814;-69
2023/10/15 00:28:00;;;;;;;8.10;2.40;;;;;;;7.94;81.37;99348.59;217968;1259;141053;-69
2023/10/15 00:33:06;;;;;;;4.20;2.00;;;;;;;8.05;81.71;99351.73;217423;1259;139877;-69
2023/10/15 00:38:16;;;;;;;30.80;7.00;;;;;;;8.11;81.37;99346.95;217984;1259;139831;-70
2023/10/15 00:43:21;;;;;;;9.10;3.90;;;;;;;8.15;81.42;99353.84;217878;1259;139780;-69
2023/10/15 00:48:36;;;;;;;6.80;2.30;;;;;;;8.17;81.12;99345.02;218908;1259;139841;-69
2023/10/15 00:53:50;;;;;;;4.00;2.20;;;;;;;8.17;81.11;99351.93;218133;1259;139559;-69
2023/10/15 00:59:08;;;;;;;7.50;2.80;;;;;;;8.18;81.09;99354.24;218860;1258;140573;-70
2023/10/15 01:04:15;;;;;;;3.00;2.40;;;;;;;8.17;80.77;99358.02;219944;1258;139082;-75
2023/10/15 01:14:27;;;;;;;7.30;2.70;;;;;;;8.11;80.59;99354.27;220172;1259;140428;-70
2023/10/15 01:19:34;;;;;;;4.70;2.00;;;;;;;8.08;80.42;99351.86;220140;1259;141235;-69
2023/10/15 01:24:41;;;;;;;12.90;2.60;;;;;;;8.06;80.48;99343.75;219555;1259;139680;-68
2023/10/15 01:29:47;;;;;;;9.90;3.30;;;;;;;8.03;80.39;99351.84;218968;1260;139678;-70
2023/10/15 01:34:53;;;;;;;5.90;2.50;;;;;;;7.97;80.24;99351.73;217899;1259;139324;-69
2023/10/15 01:40:44;;;;;;;5.60;2.50;;;;;;;7.90;80.32;99360.44;217955;1259;139784;-70
2023/10/15 01:45:38;;;;;;;12.30;5.80;;;;;;;7.83;80.19;99359.92;218013;1258;139289;-71
2023/10/15 01:50:49;;;;;;;2.70;1.90;;;;;;;7.73;80.55;99355.59;217958;1259;140674;-70
2023/10/15 01:56:02;;;;;;;6.20;3.30;;;;;;;7.65;80.57;99357.12;217217;1259;139335;-70
2023/10/15 02:01:20;;;;;;;3.90;3.20;;;;;;;7.60;80.62;99360.98;217848;1262;141264;-69
2023/10/15 02:06:25;;;;;;;6.10;2.60;;;;;;;7.52;80.63;99354.33;217908;1259;139366;-71
2023/10/15 02:11:29;;;;;;;11.10;3.60;;;;;;;7.44;80.72;99346.67;217441;1259;139533;-69
2023/10/15 02:16:37;;;;;;;11.50;2.70;;;;;;;7.38;80.91;99342.42;217593;1258;140100;-69
2023/10/15 02:21:49;;;;;;;7.70;3.50;;;;;;;7.32;81.28;99340.84;217050;1262;139928;-69
2023/10/15 02:26:52;;;;;;;5.60;2.30;;;;;;;7.27;81.08;99345.68;218212;1259;140534;-72
2023/10/15 02:31:58;;;;;;;7.20;3.00;;;;;;;7.21;81.37;99346.35;217515;1259;140345;-71
2023/10/15 02:37:04;;;;;;;4.70;1.90;;;;;;;7.16;81.45;99351.88;218368;1258;141460;-70
2023/10/15 02:42:07;;;;;;;5.10;3.20;;;;;;;7.11;81.24;99346.55;218158;1258;141482;-70
2023/10/15 02:47:28;;;;;;;7.20;2.50;;;;;;;7.09;81.48;99347.17;217524;1259;221338;-69
2023/10/15 02:52:35;;;;;;;4.10;1.70;;;;;;;7.07;81.48;99342.63;219815;1259;139996;-71
2023/10/15 02:57:43;;;;;;;3.70;2.40;;;;;;;7.04;81.47;99341.00;217415;1260;140107;-71
2023/10/15 03:02:49;;;;;;;6.00;3.00;;;;;;;6.96;81.71;99358.91;218042;1258;139491;-72
2023/10/15 03:07:59;;;;;;;4.10;2.50;;;;;;;6.91;81.59;99354.85;219617;1257;139527;-72
2023/10/15 03:13:07;;;;;;;6.80;2.70;;;;;;;6.91;82.08;99358.23;220105;1258;139543;-72
2023/10/15 03:18:15;;;;;;;9.80;2.90;;;;;;;6.90;81.70;99361.59;219475;1259;139694;-71
2023/10/15 03:23:19;;;;;;;12.10;3.00;;;;;;;6.92;82.02;99360.39;219139;1259;139754;-68
2023/10/15 03:28:24;;;;;;;3.80;2.20;;;;;;;6.92;81.85;99356.52;218575;1258;139767;-68
2023/10/15 03:33:30;;;;;;;6.80;2.30;;;;;;;6.91;81.63;99350.01;218998;1259;139897;-70
2023/10/15 03:38:36;;;;;;;6.00;2.20;;;;;;;6.87;82.12;99348.50;218430;1259;139673;-69
2023/10/15 03:43:42;;;;;;;6.20;2.30;;;;;;;6.83;82.20;99353.27;218654;1258;139588;-69
2023/10/15 03:48:48;;;;;;;6.50;2.40;;;;;;;6.78;81.55;99344.91;218878;1259;139882;-69
2023/10/15 03:53:58;;;;;;;6.90;3.10;;;;;;;6.74;82.36;99346.20;217402;1259;139915;-69
2023/10/15 03:59:04;;;;;;;7.50;3.90;;;;;;;6.70;82.10;99350.63;218823;1257;140886;-68
2023/10/15 04:04:10;;;;;;;8.10;2.60;;;;;;;6.65;82.43;99347.66;217847;1259;139573;-70
2023/10/15 04:09:16;;;;;;;8.40;2.50;;;;;;;6.59;82.02;99345.02;218296;1259;230620;-70
2023/10/15 04:14:32;;;;;;;8.20;2.50;;;;;;;6.55;82.68;99352.99;217377;1259;140075;-70
2023/10/15 04:19:38;;;;;;;9.20;3.30;;;;;;;6.52;82.02;99361.86;217240;1259;139291;-69
2023/10/15 04:24:49;;;;;;;6.40;3.40;;;;;;;6.48;81.90;99360.59;218135;1260;140082;-70
2023/10/15 04:29:55;;;;;;;4.00;1.50;;;;;;;6.46;82.16;99360.20;218044;1259;139664;-69
2023/10/15 04:35:04;;;;;;;33.50;4.10;;;;;;;6.44;82.23;99356.55;217333;1260;139534;-69
2023/10/15 04:40:12;;;;;;;1.80;1.70;;;;;;;6.43;82.44;99355.42;218766;1259;140039;-69
2023/10/15 04:45:29;;;;;;;6.60;1.80;;;;;;;6.40;82.24;99364.95;217848;1258;139602;-68
2023/10/15 04:50:36;;;;;;;4.80;1.40;;;;;;;6.38;82.22;99361.44;218893;1258;139434;-69
2023/10/15 04:55:44;;;;;;;2.80;1.30;;;;;;;6.35;82.32;99360.32;218816;1259;140463;-69
2023/10/15 05:00:50;;;;;;;1.50;1.40;;;;;;;6.35;82.41;99368.70;219190;1258;140365;-68
2023/10/15 05:05:59;;;;;;;4.20;2.70;;;;;;;6.32;81.87;99376.91;220147;1259;140653;-69
2023/10/15 05:11:06;;;;;;;2.10;1.40;;;;;;;6.32;82.14;99385.95;219696;1259;139712;-69
2023/10/15 05:16:10;;;;;;;;;;;;;;;6.34;82.04;99387.23;220085;1259;139927;-69
2023/10/15 05:21:18;;;;;;;2.80;1.70;;;;;;;6.33;82.20;99390.92;220373;1259;125854;-70
2023/10/15 05:26:22;;;;;;;3.00;1.80;;;;;;;6.31;81.93;99393.16;219938;1259;140398;-70
2023/10/15 05:31:27;;;;;;;4.00;2.10;;;;;;;6.33;82.13;99396.49;218729;1259;141269;-70
2023/10/15 05:36:33;;;;;;;6.90;2.00;;;;;;;6.37;82.23;99397.48;218208;1259;141626;-72
2023/10/15 05:41:39;;;;;;;4.50;1.60;;;;;;;6.36;82.26;99404.05;218529;1259;139833;-67
2023/10/15 05:46:47;;;;;;;5.40;1.40;;;;;;;6.39;82.13;99414.63;218212;1259;139827;-66
2023/10/15 05:51:53;;;;;;;6.70;1.90;;;;;;;6.41;81.68;99418.23;217547;1260;140579;-69
2023/10/15 05:56:58;;;;;;;4.30;1.40;;;;;;;6.41;82.28;99415.37;218173;1259;139395;-68
2023/10/15 06:02:04;;;;;;;5.10;1.60;;;;;;;6.45;82.29;99414.59;217969;1259;140033;-70
2023/10/15 06:07:10;;;;;;;12.00;2.40;;;;;;;6.50;82.47;99416.27;218104;1258;140363;-68
2023/10/15 06:12:17;;;;;;;3.60;1.30;;;;;;;6.56;82.24;99425.67;217831;1259;141761;-68
2023/10/15 06:17:24;;;;;;;3.60;1.70;;;;;;;6.62;82.28;99441.16;218267;1259;139575;-68
2023/10/15 06:22:30;;;;;;;;;;;;;;;6.69;82.19;99444.89;217103;1259;139659;-68
2023/10/15 06:27:37;;;;;;;4.40;2.20;;;;;;;6.75;81.83;99451.99;218374;1259;126040;-68
2023/10/15 06:32:43;;;;;;;6.20;1.40;;;;;;;6.84;82.02;99459.70;218111;1259;141038;-69
2023/10/15 06:37:51;;;;;;;5.70;1.60;;;;;;;6.95;82.21;99462.92;218049;1259;139880;-72
2023/10/15 06:43:03;;;;;;;10.40;2.70;;;;;;;7.10;82.05;99466.60;218408;1259;141772;-68
2023/10/15 06:48:09;;;;;;;6.70;1.20;;;;;;;7.42;81.79;99471.86;218356;1259;140304;-69
2023/10/15 06:53:13;;;;;;;5.90;1.90;;;;;;;7.80;81.42;99472.67;218350;1259;139909;-71
2023/10/15 06:58:18;;;;;;;6.00;2.00;;;;;;;8.11;80.80;99473.77;218699;1259;141828;-68
2023/10/15 07:03:23;;;;;;;4.10;1.30;;;;;;;8.43;80.29;99481.85;219496;1258;139766;-70
2023/10/15 07:08:28;;;;;;;1.40;1.30;;;;;;;8.58;79.80;99488.04;220121;1259;139808;-70
2023/10/15 07:13:34;;;;;;;10.90;1.90;;;;;;;8.56;79.16;99491.99;218535;1258;139279;-69
2023/10/15 07:18:39;;;;;;;8.30;2.30;;;;;;;8.43;78.61;99494.85;218167;1260;140698;-68
2023/10/15 07:23:45;;;;;;;3.80;2.20;;;;;;;8.29;78.64;99488.52;219891;1260;140049;-68
2023/10/15 07:28:50;;;;;;;9.90;2.70;;;;;;;8.23;78.68;99496.05;217731;1260;140728;-72
2023/10/15 07:33:56;;;;;;;9.20;3.30;;;;;;;8.21;78.35;99500.40;217971;1259;139526;-69
2023/10/15 07:39:06;;;;;;;9.30;3.00;;;;;;;8.14;78.37;99505.88;217880;1259;139316;-68
2023/10/15 07:44:14;;;;;;;3.00;1.60;;;;;;;8.09;78.41;99511.65;217772;1262;139791;-68
2023/10/15 07:49:25;;;;;;;4.40;1.40;;;;;;;8.06;78.31;99512.10;218402;1259;140053;-67
2023/10/15 07:54:31;;;;;;;5.10;2.40;;;;;;;8.00;77.88;99507.46;217525;1259;139689;-67
2023/10/15 07:59:35;;;;;;;3.90;2.10;;;;;;;7.99;77.99;99510.26;218045;1258;141481;-69
2023/10/15 08:04:41;;;;;;;6.60;4.20;;;;;;;7.98;77.47;99513.05;218782;1260;139586;-69
2023/10/15 08:09:47;;;;;;;3.90;2.70;;;;;;;8.05;77.53;99512.69;217486;1259;139685;-68
2023/10/15 08:14:52;;;;;;;7.70;4.30;;;;;;;8.08;77.42;99509.54;218419;1259;139251;-69
2023/10/15 08:20:03;;;;;;;3.60;2.20;;;;;;;8.03;77.12;99511.89;217487;1259;139599;-67
2023/10/15 08:25:13;;;;;;;3.50;2.10;;;;;;;8.06;77.15;99515.86;218482;1259;139521;-68
2023/10/15 08:30:18;;;;;;;2.60;2.00;;;;;;;8.08;76.81;99512.40;217871;1259;140822;-67
2023/10/15 08:35:22;;;;;;;3.80;2.00;;;;;;;8.09;76.76;99518.44;217920;1259;141950;-68
2023/10/15 08:40:27;;;;;;;6.60;3.70;;;;;;;8.15;76.71;99523.56;219037;1259;139889;-69
2023/10/15 08:45:34;;;;;;;8.00;2.00;;;;;;;8.24;76.57;99524.75;217277;1260;140377;-69
2023/10/15 08:50:40;;;;;;;2.70;1.60;;;;;;;8.36;76.56;99523.48;218033;1259;141150;-68
2023/10/15 08:55:46;;;;;;;5.30;1.80;;;;;;;8.52;76.13;99517.61;219092;1259;140095;-70
2023/10/15 09:00:56;;;;;;;7.40;4.50;;;;;;;8.68;75.55;99513.92;218837;1259;140091;-71
2023/10/15 09:06:05;;;;;;;4.60;1.90;;;;;;;8.91;75.52;99514.91;217271;1259;140026;-71
2023/10/15 09:11:21;;;;;;;3.20;1.20;;;;;;;9.09;75.13;99514.98;219594;1259;139604;-68
2023/10/15 09:16:28;;;;;;;5.90;3.10;;;;;;;9.31;74.88;99516.01;220089;1259;140497;-71
2023/10/15 09:21:36;;;;;;;5.80;2.40;;;;;;;9.47;74.21;99512.48;219150;1260;139934;-69
2023/10/15 09:26:43;;;;;;;4.60;1.70;;;;;;;9.54;73.57;99518.58;219440;1259;139754;-70
2023/10/15 09:31:49;;;;;;;10.10;3.10;;;;;;;9.54;73.29;99520.60;217854;1259;139875;-75
2023/10/15 09:36:54;;;;;;;10.20;3.70;;;;;;;9.56;73.26;99526.83;217588;1262;139676;-71
2023/10/15 09:42:02;;;;;;;8.20;2.40;;;;;;;9.52;73.06;99523.39;218177;1259;140945;-71
2023/10/15 09:47:09;;;;;;;4.20;2.40;;;;;;;9.47;72.99;99527.92;217941;1260;140040;-71
2023/10/15 09:52:19;;;;;;;5.60;2.10;;;;;;;9.46;72.82;99525.66;217445;1259;139195;-71
2023/10/15 09:57:30;;;;;;;6.90;1.80;;;;;;;9.44;72.82;99521.68;217807;1259;140469;-70
2023/10/15 10:02:45;;;;;;;5.50;1.90;;;;;;;9.51;73.08;99524.20;217618;1260;142029;-69
2023/10/15 10:08:05;;;;;;;8.20;2.30;;;;;;;9.46;72.51;99521.66;217899;1259;139881;-68
2023/10/15 10:13:25;;;;;;;2.40;1.70;;;;;;;9.29;72.25;99521.23;217940;1261;140214;-68
2023/10/15 10:18:33;;;;;;;23.10;3.70;;;;;;;9.21;71.96;99511.87;217382;1259;140528;-68
2023/10/15 10:23:39;;;;;;;5.10;3.70;;;;;;;9.19;71.98;99510.88;217780;1260;140693;-68
2023/10/15 10:28:54;;;;;;;6.10;2.60;;;;;;;9.22;72.21;99505.03;217140;1259;139502;-69
2023/10/15 10:34:03;;;;;;;4.90;2.50;;;;;;;9.29;72.27;99504.20;218180;1262;139772;-71
2023/10/15 10:39:13;;;;;;;3.40;3.00;;;;;;;9.40;72.15;99499.61;218444;1260;140721;-70
2023/10/15 10:44:30;;;;;;;4.00;2.90;;;;;;;9.54;72.14;99495.11;218983;1259;140167;-71
2023/10/15 10:49:40;;;;;;;;;;;;;;;9.71;71.87;99490.61;219360;1259;139665;-71
2023/10/15 10:54:48;;;;;;;8.30;2.40;;;;;;;9.88;71.82;99490.64;218617;1259;126644;-70
2023/10/15 10:59:54;;;;;;;10.00;2.90;;;;;;;9.98;71.50;99479.99;218294;1259;140151;-71
2023/10/15 11:05:01;;;;;;;2.60;1.80;;;;;;;10.17;71.64;99476.22;219723;1259;140393;-71
2023/10/15 11:10:09;;;;;;;2.70;1.80;;;;;;;10.32;71.28;99473.68;220034;1259;140564;-71
2023/10/15 11:15:14;;;;;;;7.60;3.60;;;;;;;10.39;71.17;99481.96;218898;1260;139711;-70
2023/10/15 11:20:27;;;;;;;3.80;2.20;;;;;;;10.41;70.75;99478.59;218419;1260;141074;-71
2023/10/15 11:25:37;;;;;;;3.90;1.60;;;;;;;10.41;70.47;99478.69;217642;1262;140001;-69
2023/10/15 11:30:42;;;;;;;2.70;1.60;;;;;;;10.46;70.37;99475.84;217988;1260;139864;-70
2023/10/15 11:35:48;;;;;;;2.80;1.90;;;;;;;10.52;70.02;99474.89;218157;1260;139930;-70
2023/10/15 11:40:54;;;;;;;2.00;1.50;;;;;;;10.65;70.58;99468.56;218267;1260;139860;-71
2023/10/15 11:46:07;;;;;;;6.70;1.70;;;;;;;11.11;70.33;99459.77;217355;1260;139849;-70
2023/10/15 11:51:14;;;;;;;3.60;2.60;;;;;;;11.19;69.38;99455.35;218791;1258;140142;-71
2023/10/15 11:56:20;;;;;;;4.10;1.60;;;;;;;11.02;68.75;99462.73;218059;1260;140021;-69
2023/10/15 12:01:26;;;;;;;;;;;;;;;10.91;68.69;99459.64;218013;1259;139621;-70
2023/10/15 12:06:32;;;;;;;8.30;1.70;;;;;;;11.31;69.10;99451.34;217920;1260;140276;-70
2023/10/15 12:11:46;;;;;;;2.50;1.30;;;;;;;11.92;68.69;99438.73;217963;1261;140289;-70
2023/10/15 12:16:54;;;;;;;1.40;0.90;;;;;;;12.32;68.20;99438.92;218173;1260;139992;-71
2023/10/15 12:22:03;;;;;;;5.50;1.90;;;;;;;12.36;67.29;99435.55;218045;1260;140533;-71
2023/10/15 12:27:09;;;;;;;3.00;1.40;;;;;;;12.01;66.24;99442.78;219028;1262;140195;-71
2023/10/15 12:32:20;;;;;;;1.40;0.90;;;;;;;11.80;66.37;99447.78;217461;1263;140937;-70
2023/10/15 12:37:49;;;;;;;7.10;1.90;;;;;;;11.55;65.98;99444.95;218123;1259;139702;-71
2023/10/15 12:42:59;;;;;;;2.80;1.90;;;;;;;11.48;65.75;99448.38;218348;1263;140042;-71
2023/10/15 12:48:08;;;;;;;4.70;2.30;;;;;;;11.61;65.14;99441.70;220045;1260;140827;-72
2023/10/15 12:53:16;;;;;;;2.30;1.60;;;;;;;11.37;64.86;99441.40;219990;1260;140352;-71
2023/10/15 12:58:25;;;;;;;11.20;2.10;;;;;;;11.16;64.45;99442.13;219801;1263;140421;-71
2023/10/15 13:03:30;;;;;;;1.70;0.80;;;;;;;11.03;64.85;99445.61;219816;1260;140024;-71
2023/10/15 13:08:37;;;;;;;2.40;1.30;;;;;;;11.03;65.04;99443.75;220101;1259;139539;-71
2023/10/15 13:13:46;;;;;;;4.00;1.90;;;;;;;10.99;64.78;99447.75;219996;1260;142222;-71
2023/10/15 13:18:52;;;;;;;6.20;1.70;;;;;;;10.92;65.06;99448.45;218811;1263;140651;-71
2023/10/15 13:23:57;;;;;;;11.00;2.40;;;;;;;10.82;64.96;99443.77;217512;1263;140341;-71
2023/10/15 13:29:03;;;;;;;4.00;1.40;;;;;;;10.79;64.82;99443.19;217175;1263;140122;-70
2023/10/15 13:34:09;;;;;;;5.70;1.40;;;;;;;10.83;65.11;99439.98;218408;1259;140273;-70
2023/10/15 13:39:28;;;;;;;6.20;2.20;;;;;;;10.73;64.64;99437.39;217290;1263;140356;-69
2023/10/15 13:44:58;;;;;;;5.10;1.90;;;;;;;10.72;64.81;99428.63;218114;1261;140267;-72
2023/10/15 13:50:17;;;;;;;1.70;1.00;;;;;;;10.69;64.94;99431.20;218228;1261;140230;-71
2023/10/15 13:55:27;;;;;;;5.40;2.00;;;;;;;10.87;64.85;99434.83;217783;1261;140324;-70
2023/10/15 14:00:35;;;;;;;3.50;1.70;;;;;;;10.97;65.13;99430.55;217496;1263;140072;-69
2023/10/15 14:05:43;;;;;;;1.50;1.20;;;;;;;11.15;64.65;99430.11;218478;1261;139684;-71
2023/10/15 14:10:50;;;;;;;6.00;1.70;;;;;;;11.12;64.54;99427.24;218697;1263;140648;-71
2023/10/15 14:16:01;;;;;;;4.50;1.70;;;;;;;11.03;64.42;99430.95;218727;1261;139840;-70
2023/10/15 14:21:09;;;;;;;4.70;1.30;;;;;;;10.87;64.33;99427.78;217638;1259;932818;-70
2023/10/15 14:26:17;;;;;;;1.50;1.10;;;;;;;10.59;63.91;99428.80;218031;1261;139871;-71
2023/10/15 14:31:25;;;;;;;2.10;1.30;;;;;;;10.24;63.85;99423.29;218937;1259;140210;-71
2023/10/15 14:36:38;;;;;;;7.10;1.30;;;;;;;10.08;64.28;99424.86;217762;1261;139861;-70
2023/10/15 14:41:48;;;;;;;2.90;1.60;;;;;;;10.04;64.37;99421.48;218881;1261;140350;-71
2023/10/15 14:46:56;;;;;;;2.60;1.90;;;;;;;9.95;64.42;99425.58;218880;1261;140040;-70
2023/10/15 14:52:09;;;;;;;7.80;2.60;;;;;;;9.83;64.38;99426.72;219624;1260;140355;-71
2023/10/15 14:57:18;;;;;;;1.30;1.20;;;;;;;9.84;64.38;99427.15;219786;1261;140902;-71
2023/10/15 15:02:39;;;;;;;11.90;3.40;;;;;;;9.77;64.30;99437.64;218350;1261;140241;-70
2023/10/15 15:08:04;;;;;;;3.70;2.00;;;;;;;9.70;64.26;99444.33;219261;1260;140637;-70
2023/10/15 15:13:11;;;;;;;2.50;1.40;;;;;;;9.62;64.42;99445.05;218786;1262;140290;-69
2023/10/15 15:18:19;;;;;;;3.90;1.10;;;;;;;9.55;64.45;99447.93;219835;1260;140642;-69
2023/10/15 15:23:28;;;;;;;3.50;0.90;;;;;;;9.44;64.53;99446.85;217988;1261;140117;-70
2023/10/15 15:28:37;;;;;;;1.70;1.20;;;;;;;9.30;64.68;99449.32;219265;1260;139404;-71
2023/10/15 15:33:47;;;;;;;2.90;0.90;;;;;;;9.15;65.01;99451.40;218067;1260;139643;-70
2023/10/15 15:38:55;;;;;;;9.60;1.60;;;;;;;9.03;65.12;99459.21;218478;1259;140729;-71
2023/10/15 15:44:04;;;;;;;4.20;1.30;;;;;;;8.90;65.23;99463.41;217827;1259;139876;-70
2023/10/15 15:49:15;;;;;;;1.10;1.00;;;;;;;8.73;65.27;99470.73;218854;1260;140691;-70
2023/10/15 15:54:27;;;;;;;6.40;2.00;;;;;;;8.56;65.41;99475.04;217574;1263;140412;-70
2023/10/15 15:59:39;;;;;;;4.00;2.00;;;;;;;8.40;65.67;99482.91;217263;1263;139628;-71
2023/10/15 16:04:47;;;;;;;1.40;1.10;;;;;;;8.26;66.03;99485.20;217144;1261;139741;-70
2023/10/15 16:10:00;;;;;;;3.00;1.60;;;;;;;8.13;66.24;99493.55;217215;1260;139727;-70
2023/10/15 16:15:09;;;;;;;4.70;1.80;;;;;;;8.01;66.37;99499.54;217686;1263;142025;-69
2023/10/15 16:20:18;;;;;;;4.40;2.60;;;;;;;7.88;66.77;99507.23;217544;1259;141091;-70
2023/10/15 16:25:28;;;;;;;5.90;1.70;;;;;;;7.73;67.38;99518.91;217189;1261;139594;-70
2023/10/15 16:30:36;;;;;;;3.10;1.80;;;;;;;7.61;67.31;99523.25;217113;1260;139685;-71
2023/10/15 16:35:46;;;;;;;24.60;3.90;;;;;;;7.50;67.61;99527.33;218982;1259;140306;-70
2023/10/15 16:40:56;;;;;;;3.90;2.10;;;;;;;7.45;67.82;99534.21;218260;1260;139747;-70
2023/10/15 16:46:14;;;;;;;4.20;2.90;;;;;;;7.37;68.06;99540.05;217658;1259;139458;-70
2023/10/15 16:51:25;;;;;;;4.90;2.70;;;;;;;7.27;68.53;99548.27;217797;1260;139128;-69
2023/10/15 16:56:34;;;;;;;8.20;2.60;;;;;;;7.23;68.54;99553.52;219693;1259;139518;-70
2023/10/15 17:01:47;;;;;;;3.70;1.90;;;;;;;7.16;68.72;99558.69;220054;1259;139403;-70
2023/10/15 17:06:54;;;;;;;12.30;2.80;;;;;;;7.06;68.94;99560.42;219184;1259;140077;-68
2023/10/15 17:12:03;;;;;;;;;;;;;;;6.92;69.02;99564.95;219725;1259;140747;-69
2023/10/15 17:17:11;;;;;;;8.10;2.50;;;;;;;6.71;69.23;99559.95;219752;1258;126431;-69
2023/10/15 17:22:19;;;;;;;;;;;;;;;6.52;69.27;99564.30;219789;1258;140757;-69
2023/10/15 17:27:28;;;;;;;5.10;1.90;;;;;;;6.35;69.45;99570.48;218744;1259;126360;-69
2023/10/15 17:32:42;;;;;;;3.20;1.80;;;;;;;6.20;70.10;99574.88;218760;1259;139625;-69
2023/10/15 17:37:56;;;;;;;3.60;2.10;;;;;;;6.04;70.16;99577.77;218254;1260;140244;-69
2023/10/15 17:43:08;;;;;;;7.30;2.20;;;;;;;5.92;70.80;99580.55;218529;1259;139704;-70
2023/10/15 17:48:18;;;;;;;5.80;2.60;;;;;;;5.81;70.83;99586.88;218020;1260;139575;-69
2023/10/15 17:53:28;;;;;;;4.00;2.20;;;;;;;5.71;71.17;99587.67;218276;1259;139648;-68
2023/10/15 17:58:39;;;;;;;4.60;2.30;;;;;;;5.64;71.40;99587.68;218588;1259;140109;-69
2023/10/15 18:03:47;;;;;;;7.80;3.10;;;;;;;5.60;71.61;99596.39;217247;1262;139574;-69
2023/10/15 18:09:01;;;;;;;2.20;2.00;;;;;;;5.59;72.17;99598.10;217752;1261;139453;-69
2023/10/15 18:14:11;;;;;;;5.80;2.40;;;;;;;5.57;72.41;99599.56;217637;1260;140291;-68
2023/10/15 18:19:19;;;;;;;10.00;2.50;;;;;;;5.54;72.62;99607.14;218483;1259;139604;-69
2023/10/15 18:24:30;;;;;;;4.50;2.50;;;;;;;5.49;72.59;99615.05;218133;1259;140297;-69
2023/10/15 18:29:35;;;;;;;5.60;2.60;;;;;;;5.46;73.08;99614.19;218830;1261;139644;-69
2023/10/15 18:34:45;;;;;;;8.50;5.10;;;;;;;5.46;73.26;99610.30;218113;1259;139508;-69
2023/10/15 18:39:53;;;;;;;5.70;2.50;;;;;;;5.48;73.27;99614.33;219462;1259;139602;-69
2023/10/15 18:45:03;;;;;;;3.80;2.40;;;;;;;5.44;73.33;99621.02;219190;1259;139688;-67
2023/10/15 18:50:12;;;;;;;11.20;4.00;;;;;;;5.40;73.56;99618.73;219911;1259;139645;-68
2023/10/15 18:55:28;;;;;;;5.40;3.70;;;;;;;5.41;73.53;99626.39;219661;1260;139727;-68
2023/10/15 19:00:40;;;;;;;3.70;3.30;;;;;;;5.43;73.44;99636.73;219751;1260;139757;-68
2023/10/15 19:05:55;;;;;;;7.50;3.40;;;;;;;5.43;73.78;99642.54;219881;1259;140283;-70
2023/10/15 19:11:03;;;;;;;9.10;4.20;;;;;;;5.39;73.98;99646.61;219982;1259;139512;-68
2023/10/15 19:16:15;;;;;;;7.10;3.70;;;;;;;5.38;74.03;99648.71;219689;1259;140173;-69
2023/10/15 19:21:25;;;;;;;6.10;3.00;;;;;;;5.34;74.17;99657.58;218611;1259;140009;-69
2023/10/15 19:26:37;;;;;;;4.00;2.70;;;;;;;5.29;74.48;99662.73;219259;1259;140795;-68
2023/10/15 19:31:49;;;;;;;10.30;4.50;;;;;;;5.23;74.58;99671.92;217446;1259;139714;-69
2023/10/15 19:36:57;;;;;;;8.00;3.80;;;;;;;5.17;74.68;99673.88;217914;1259;140426;-68
2023/10/15 19:42:06;;;;;;;7.70;4.50;;;;;;;5.14;74.93;99665.38;217152;1259;140044;-68
2023/10/15 19:47:13;;;;;;;11.60;4.80;;;;;;;5.13;75.20;99667.90;217996;1259;140521;-67
2023/10/15 19:52:25;;;;;;;6.90;3.30;;;;;;;5.11;75.07;99669.42;218086;1259;139844;-67
2023/10/15 19:57:36;;;;;;;9.50;4.20;;;;;;;5.07;75.44;99669.21;217158;1263;139282;-67
2023/10/15 20:02:57;;;;;;;6.50;3.50;;;;;;;5.03;75.68;99676.16;218212;1259;140154;-67
2023/10/15 20:08:15;;;;;;;5.60;2.90;;;;;;;4.99;75.85;99676.23;217270;1259;235891;-67
2023/10/15 20:13:23;;;;;;;5.70;3.00;;;;;;;4.94;76.22;99678.23;217240;1261;238679;-66
2023/10/15 20:18:33;;;;;;;10.60;3.40;;;;;;;4.90;76.06;99677.34;217127;1263;139570;-67
2023/10/15 20:23:48;;;;;;;55.10;8.30;;;;;;;4.86;76.35;99681.33;217846;1259;139646;-67
2023/10/15 20:29:07;;;;;;;9.20;5.30;;;;;;;4.81;76.64;99680.82;218595;1260;139622;-68
2023/10/15 20:34:16;;;;;;;8.40;4.80;;;;;;;4.82;76.73;99685.54;218717;1259;140950;-69
2023/10/15 20:39:26;;;;;;;7.70;4.50;;;;;;;4.82;76.98;99690.22;217420;1262;244090;-67
2023/10/15 20:44:36;;;;;;;24.80;12.00;;;;;;;4.84;76.91;99693.88;218104;1259;140555;-68
2023/10/15 20:49:48;;;;;;;23.60;15.30;;;;;;;4.82;77.14;99686.39;219044;1259;150047;-67
2023/10/15 20:54:57;;;;;;;20.80;13.30;;;;;;;4.82;77.19;99685.50;218023;1259;141776;-69
2023/10/15 21:00:13;;;;;;;7.20;6.00;;;;;;;4.80;77.62;99682.20;218207;1259;140019;-66
2023/10/15 21:05:21;;;;;;;12.40;5.50;;;;;;;4.77;77.55;99689.14;219049;1258;139546;-67
2023/10/15 21:10:26;;;;;;;8.70;5.30;;;;;;;4.75;77.82;99692.91;218627;1258;139700;-68
2023/10/15 21:15:33;;;;;;;7.30;4.30;;;;;;;4.74;77.54;99688.43;219184;1259;141264;-67
2023/10/15 21:20:39;;;;;;;7.70;4.80;;;;;;;4.73;77.80;99687.21;218148;1259;139418;-69
2023/10/15 21:25:45;;;;;;;4.60;3.60;;;;;;;4.71;78.06;99682.93;218513;1258;139582;-69
2023/10/15 21:30:51;;;;;;;7.20;4.70;;;;;;;4.71;78.56;99683.02;217584;1259;139238;-67
2023/10/15 21:35:56;;;;;;;6.70;4.60;;;;;;;4.78;78.67;99678.14;218041;1259;140962;-66
2023/10/15 21:41:04;;;;;;;7.00;4.30;;;;;;;4.84;78.82;99677.38;217504;1260;139419;-68
2023/10/15 21:46:10;;;;;;;4.70;3.50;;;;;;;4.88;78.86;99675.64;218404;1259;139977;-68
2023/10/15 21:51:17;;;;;;;8.20;5.20;;;;;;;4.92;78.89;99672.17;217913;1259;140147;-68
2023/10/15 21:56:23;;;;;;;9.30;4.00;;;;;;;5.00;79.33;99673.87;217752;1259;139307;-66
2023/10/15 22:01:29;;;;;;;9.30;4.90;;;;;;;5.05;79.19;99673.27;218273;1259;140391;-68
2023/10/15 22:06:36;;;;;;;6.10;4.00;;;;;;;5.12;79.38;99676.83;217846;1258;139449;-69
2023/10/15 22:11:44;;;;;;;8.40;3.40;;;;;;;5.19;79.24;99673.14;217872;1259;139836;-69
2023/10/15 22:16:50;;;;;;;6.60;4.00;;;;;;;5.25;79.37;99670.86;217442;1260;139338;-68
2023/10/15 22:21:58;;;;;;;6.70;3.90;;;;;;;5.29;79.12;99667.86;217755;1262;140184;-65
2023/10/15 22:27:13;;;;;;;5.10;3.70;;;;;;;5.32;79.29;99665.06;218117;1262;139061;-68
2023/10/15 22:32:20;;;;;;;9.70;5.10;;;;;;;5.33;79.37;99663.60;217659;1262;140190;-70
2023/10/15 22:37:26;;;;;;;9.70;4.20;;;;;;;5.34;79.70;99664.33;217534;1260;139635;-68
2023/10/15 22:42:32;;;;;;;5.30;3.30;;;;;;;5.35;79.29;99663.77;218060;1259;139328;-68
2023/10/15 22:47:39;;;;;;;4.50;3.40;;;;;;;5.36;79.58;99666.23;218492;1259;139679;-67
2023/10/15 22:52:45;;;;;;;21.00;13.20;;;;;;;5.39;79.36;99667.34;218068;1258;140339;-68
2023/10/15 22:57:53;;;;;;;11.10;9.20;;;;;;;5.44;79.44;99662.55;218601;1259;140014;-69
2023/10/15 23:02:59;;;;;;;5.60;5.10;;;;;;;5.47;79.33;99662.19;218014;1258;139818;-69
2023/10/15 23:08:08;;;;;;;3.10;2.80;;;;;;;5.50;79.63;99661.78;219830;1259;140393;-69
2023/10/15 23:13:14;;;;;;;3.60;2.80;;;;;;;5.52;79.87;99661.56;219701;1259;139490;-71
2023/10/15 23:18:20;;;;;;;5.80;3.30;;;;;;;5.57;79.50;99662.17;219870;1258;139645;-68
2023/10/15 23:23:26;;;;;;;5.90;2.40;;;;;;;5.62;79.42;99665.67;218629;1258;140146;-68
2023/10/15 23:28:31;;;;;;;7.10;2.80;;;;;;;5.69;79.60;99667.21;217841;1257;139804;-68
2023/10/15 23:33:37;;;;;;;4.90;4.20;;;;;;;5.73;79.75;99672.14;217862;1262;139651;-68
2023/10/15 23:38:42;;;;;;;5.20;2.00;;;;;;;5.77;79.18;99675.44;218564;1259;139267;-71
2023/10/15 23:43:48;;;;;;;1.80;1.60;;;;;;;5.81;79.49;99678.88;218974;1258;140818;-68
2023/10/15 23:48:59;;;;;;;5.40;3.60;;;;;;;5.84;79.50;99681.92;218105;1259;140633;-67
2023/10/15 23:54:14;;;;;;;3.80;2.30;;;;;;;5.86;79.43;99689.36;218564;1259;140531;-69
2023/10/15 23:59:21;;;;;;;3.50;2.30;;;;;;;5.88;79.41;99685.92;217977;1259;139214;-71
